AIRPORT_AIRPORT_METAR
METAR FOR BKPR
ADDS - METARS form results

(1455 UTC 18 August 2019)
Data provider http://aviationweather.gov/metar/data/
 
METAR text: BKPR 181430Z 28004KT 9999 FEW040 29/03 Q1017 NOSIG
Conditions at: BKPR (PRISHTINA , CS) observed 1430 UTC 18 August 2019
Temperature: 29.0°C (84°F)
Dewpoint: 3.0°C (37°F) [RH = 19%]
Pressure (altimeter): 30.03 inches Hg (1017.0 mb)
Winds: from the W (280 degrees) at 5 MPH (4 knots; 2.1 m/s)
Visibility: 6 or more miles (10+ km)
Ceiling: at least 12,000 feet AGL
Clouds: few clouds at 4000 feet AGL
Weather: no significant weather observed at this time

METAR text: BKPR 181400Z 29004KT 210V340 9999 FEW040 29/03 Q1018 NOSIG
Conditions at: BKPR (PRISHTINA , CS) observed 1400 UTC 18 August 2019
Temperature: 29.0°C (84°F)
Dewpoint: 3.0°C (37°F) [RH = 19%]
Pressure (altimeter): 30.06 inches Hg (1018.0 mb)
Winds: from the WNW (290 degrees) at 5 MPH (4 knots; 2.1 m/s)
Visibility: 6 or more miles (10+ km)
Ceiling: at least 12,000 feet AGL
Clouds: few clouds at 4000 feet AGL
Weather: no significant weather observed at this time

Forecast for: BKPR (PRISHTINA , CS)
Text: TAF BKPR 181130Z 1812/1912 05006KT FEW035
Forecast period: 1200 UTC 18 August 2019 to 1200 UTC 19 August 2019
Forecast type: FROM: standard forecast or significant change
Winds: from the NE (50 degrees) at 7 MPH (6 knots; 3.1 m/s)
Visibility: missing
Ceiling: at least 12,000 feet AGL
Clouds: few clouds at 3500 feet AGL
Weather: no significant weather forecast for this period

 AIRPORT_AIRPORT_MAP

 AIRPORT_RUNWAY_INFO
AIRPORT_RUNWAY 17 AIRPORT_RUNWAY_LENGTH 8165 ft AIRPORT_RUNWAY_WIDTH 148 ft
AIRPORT_RUNWAY_ELEVATION 1789 ft AIRPORT_RUNWAY_THRESHOLD 0 ft AIRPORT_RUNWAY_HEADING 176
AIRPORT_RUNWAY 35 AIRPORT_RUNWAY_LENGTH 8165 ft AIRPORT_RUNWAY_WIDTH 148 ft
AIRPORT_RUNWAY_ELEVATION 1786 ft AIRPORT_RUNWAY_THRESHOLD 0 ft AIRPORT_RUNWAY_HEADING 356

 AIRPORT_AIRPORT_FREQUENCIES
AIRPORT_AIRPORT_NAVAIDS_TYPE APP AIRPORT_AIRPORT_NAVAIDS_NAME APP AIRPORT_AIRPORT_NAVAIDS_FREQ 118.775 MHZ
AIRPORT_AIRPORT_NAVAIDS_TYPE GND AIRPORT_AIRPORT_NAVAIDS_NAME GND AIRPORT_AIRPORT_NAVAIDS_FREQ 118 MHZ
AIRPORT_AIRPORT_NAVAIDS_TYPE RMP AIRPORT_AIRPORT_NAVAIDS_NAME RAMP OPR AIRPORT_AIRPORT_NAVAIDS_FREQ 136.8 MHZ
AIRPORT_AIRPORT_NAVAIDS_TYPE TWR AIRPORT_AIRPORT_NAVAIDS_NAME TWR AIRPORT_AIRPORT_NAVAIDS_FREQ 120.125 MHZ

 AIRPORT_AIRPORT_NAVAIDS



Copyright © 2005-2019 - Virtuel Air Alsace - Tous droits réservés